createdAt,value
2018-01-06T00:02:36.729Z,102.43
2018-01-06T00:17:36.717Z,94.40
2018-01-06T00:32:34.689Z,102.83
2018-01-06T00:47:35.383Z,115.30
2018-01-06T01:02:37.054Z,98.93
2018-01-06T01:17:35.005Z,83.00
2018-01-06T01:32:34.950Z,81.93
2018-01-06T01:47:37.374Z,98.07
2018-01-06T02:02:37.256Z,77.10
2018-01-06T02:17:35.213Z,81.20
2018-01-06T02:32:35.118Z,86.00
2018-01-06T02:47:40.558Z,92.63
2018-01-06T03:02:36.886Z,88.60
2018-01-06T03:17:34.429Z,94.70
2018-01-06T03:32:35.338Z,91.10
2018-01-06T03:47:37.189Z,81.43
2018-01-06T04:02:34.759Z,79.93
2018-01-06T04:17:34.619Z,120.83
2018-01-06T04:32:34.617Z,184.17
2018-01-06T04:47:35.054Z,176.03
2018-01-06T05:02:34.937Z,159.43
2018-01-06T05:17:35.958Z,172.70
2018-01-06T05:32:34.860Z,171.07
2018-01-06T05:47:37.275Z,176.47
2018-01-06T06:02:34.642Z,139.23
2018-01-06T06:17:35.101Z,104.17
2018-01-06T06:32:34.962Z,94.50
2018-01-06T06:47:34.544Z,109.47
2018-01-06T07:02:33.822Z,121.57
2018-01-06T07:17:35.303Z,146.37
2018-01-06T07:32:35.279Z,164.23
2018-01-06T07:47:34.746Z,150.30
2018-01-06T08:02:34.753Z,131.87
2018-01-06T08:17:34.309Z,140.00
2018-01-06T08:32:34.327Z,143.80
2018-01-06T08:47:34.788Z,122.30
2018-01-06T09:02:34.832Z,133.23
2018-01-06T09:17:34.617Z,141.50
2018-01-06T09:32:34.558Z,137.23
2018-01-06T09:47:34.933Z,124.43
2018-01-06T10:02:35.149Z,115.27
2018-01-06T10:17:35.081Z,110.73
2018-01-06T10:32:35.022Z,118.93
2018-01-06T10:47:34.279Z,123.60
2018-01-06T11:02:34.683Z,115.70
2018-01-06T11:17:35.314Z,111.10
2018-01-06T11:32:36.979Z,81.53
2018-01-06T11:47:34.581Z,79.00
2018-01-06T12:02:35.625Z,78.83
2018-01-06T12:17:37.544Z,76.87
2018-01-06T12:32:33.894Z,83.37
2018-01-06T12:47:34.959Z,83.10
2018-01-06T13:02:34.659Z,83.53
2018-01-06T13:17:36.816Z,71.87
2018-01-06T13:32:37.673Z,76.53
2018-01-06T13:47:38.184Z,61.53
2018-01-06T14:02:36.872Z,60.40
2018-01-06T14:17:34.924Z,62.17
2018-01-06T14:32:34.869Z,71.77
2018-01-06T14:47:37.399Z,74.47
2018-01-06T15:02:35.059Z,104.53
2018-01-06T15:17:35.075Z,76.27
2018-01-06T15:32:37.952Z,108.50
2018-01-06T15:47:34.431Z,100.30
2018-01-06T16:02:35.330Z,114.10
2018-01-06T16:17:34.338Z,96.20
2018-01-06T16:32:35.689Z,113.33
2018-01-06T16:47:34.551Z,90.17
2018-01-06T17:02:34.692Z,122.47
2018-01-06T17:17:36.469Z,98.03
2018-01-06T17:32:33.908Z,107.30
2018-01-06T17:47:34.745Z,85.97
2018-01-06T18:02:34.205Z,104.40
2018-01-06T18:17:37.688Z,78.10
2018-01-06T18:32:34.557Z,92.57
2018-01-06T18:47:34.999Z,99.70
2018-01-06T19:02:34.542Z,106.23
2018-01-06T19:17:36.542Z,70.03
2018-01-06T19:32:34.162Z,60.73
2018-01-06T19:47:35.606Z,103.77
2018-01-06T20:02:34.965Z,86.90
2018-01-06T20:17:35.471Z,68.60
2018-01-06T20:32:35.132Z,85.00
2018-01-06T20:47:33.848Z,66.00
2018-01-06T21:02:33.921Z,49.53
2018-01-06T21:17:33.844Z,53.03
2018-01-06T21:32:33.865Z,73.77
2018-01-06T21:47:34.208Z,55.63
2018-01-06T22:02:34.144Z,58.90
2018-01-06T22:17:34.199Z,65.37
2018-01-06T22:32:34.586Z,61.57
2018-01-06T22:47:35.214Z,79.33
2018-01-06T23:02:34.372Z,95.50
2018-01-06T23:17:35.021Z,88.43
2018-01-06T23:32:35.044Z,70.47
2018-01-06T23:47:34.735Z,73.60
